AAL956 SKBG-SKCG
Flight info
| Callsign | AAL956 |
|---|---|
| Flight time | 0h 44m |
| Altitude | 24000 |
| Route | UBMUN1C UBMUN W9 DIBAM UW10 UGREB UGREB3B |
| Aircraft | B738/M-SDE2E3FGHIRWXY/LB1 |
Departure
| Time | 2026-04-27 01:12 |
|---|---|
| Airport | Palonegro Airport (SKBG) |
Arrival
| Time | 2026-04-27 01:57 |
|---|---|
| Airport | Rafael Nuñez International Airport (SKCG) |
| Time | Latitude | Longitude | Altitude | Speed | Heading |
|---|---|---|---|---|---|
| 2026-04-27 00:46 | 7.12738 | -73.18154 | 3886 ft | 0 kts | 4° |
| 2026-04-27 00:58 | 7.12728 | -73.18155 | 3886 ft | 2 kts | 4° |
| 2026-04-27 00:58 | 7.12714 | -73.18156 | 3886 ft | 2 kts | 3° |
| 2026-04-27 00:58 | 7.12698 | -73.18156 | 3886 ft | 2 kts | 359° |
| 2026-04-27 00:58 | 7.12681 | -73.18154 | 3885 ft | 2 kts | 313° |
| 2026-04-27 00:59 | 7.12676 | -73.18146 | 3885 ft | 0 kts | 283° |
| 2026-04-27 01:07 | 7.12681 | -73.18164 | 3885 ft | 8 kts | 282° |
| 2026-04-27 01:07 | 7.12704 | -73.18235 | 3885 ft | 13 kts | 305° |
| 2026-04-27 01:07 | 7.12714 | -73.18333 | 3887 ft | 16 kts | 255° |
| 2026-04-27 01:08 | 7.12615 | -73.18357 | 3885 ft | 19 kts | 157° |
| 2026-04-27 01:08 | 7.12478 | -73.18300 | 3882 ft | 24 kts | 159° |
| 2026-04-27 01:08 | 7.12310 | -73.18236 | 3878 ft | 28 kts | 160° |
| 2026-04-27 01:08 | 7.12124 | -73.18162 | 3874 ft | 29 kts | 158° |
| 2026-04-27 01:09 | 7.11938 | -73.18095 | 3869 ft | 28 kts | 173° |
| 2026-04-27 01:09 | 7.11822 | -73.18080 | 3866 ft | 0 kts | 175° |
| 2026-04-27 01:09 | 7.11816 | -73.18079 | 3867 ft | 2 kts | 175° |
| 2026-04-27 01:09 | 7.11801 | -73.18078 | 3865 ft | 3 kts | 175° |
| 2026-04-27 01:10 | 7.11776 | -73.18075 | 3865 ft | 4 kts | 174° |
| 2026-04-27 01:10 | 7.11743 | -73.18080 | 3864 ft | 6 kts | 205° |
| 2026-04-27 01:10 | 7.11722 | -73.18115 | 3862 ft | 6 kts | 262° |
| 2026-04-27 01:10 | 7.11729 | -73.18134 | 3863 ft | 5 kts | 308° |
| 2026-04-27 01:11 | 7.11766 | -73.18146 | 3863 ft | 6 kts | 353° |
| 2026-04-27 01:11 | 7.11824 | -73.18160 | 3867 ft | 19 kts | 338° |
| 2026-04-27 01:11 | 7.12198 | -73.18300 | 3877 ft | 98 kts | 340° |
| 2026-04-27 01:11 | 7.13066 | -73.18630 | 3903 ft | 166 kts | 337° |
| 2026-04-27 01:12 | 7.14251 | -73.19068 | 4461 ft | 193 kts | 341° |
| 2026-04-27 01:12 | 7.15499 | -73.19567 | 5448 ft | 192 kts | 336° |
| 2026-04-27 01:12 | 7.16689 | -73.20066 | 6487 ft | 190 kts | 337° |
| 2026-04-27 01:12 | 7.18086 | -73.20658 | 6177 ft | 244 kts | 337° |
| 2026-04-27 01:13 | 7.19656 | -73.21333 | 6136 ft | 238 kts | 337° |
| 2026-04-27 01:13 | 7.21160 | -73.21977 | 5756 ft | 237 kts | 337° |
| 2026-04-27 01:13 | 7.22746 | -73.22652 | 4448 ft | 265 kts | 338° |
| 2026-04-27 01:13 | 7.24372 | -73.23452 | 4399 ft | 238 kts | 330° |
| 2026-04-27 01:14 | 7.25796 | -73.24033 | 4504 ft | 215 kts | 341° |
| 2026-04-27 01:14 | 7.27234 | -73.24584 | 3883 ft | 228 kts | 338° |
| 2026-04-27 01:14 | 7.28666 | -73.25170 | 3836 ft | 209 kts | 338° |
| 2026-04-27 01:14 | 7.29534 | -73.25528 | 3898 ft | 200 kts | 338° |
| 2026-04-27 01:15 | 7.31182 | -73.26212 | 4359 ft | 189 kts | 338° |
| 2026-04-27 01:15 | 7.32374 | -73.26709 | 5318 ft | 183 kts | 338° |
| 2026-04-27 01:15 | 7.33179 | -73.27045 | 5722 ft | 197 kts | 338° |
| 2026-04-27 01:15 | 7.34563 | -73.27623 | 5984 ft | 229 kts | 338° |
| 2026-04-27 01:16 | 7.36697 | -73.28517 | 6351 ft | 270 kts | 338° |
| 2026-04-27 01:16 | 7.38472 | -73.29260 | 7043 ft | 280 kts | 338° |
| 2026-04-27 01:16 | 7.39675 | -73.29758 | 7615 ft | 283 kts | 338° |
| 2026-04-27 01:16 | 7.41514 | -73.30500 | 8518 ft | 286 kts | 338° |
| 2026-04-27 01:17 | 7.43380 | -73.31247 | 9384 ft | 291 kts | 338° |
| 2026-04-27 01:17 | 7.45275 | -73.32004 | 10217 ft | 296 kts | 338° |
| 2026-04-27 01:17 | 7.47264 | -73.32800 | 10540 ft | 321 kts | 338° |
| 2026-04-27 01:17 | 7.49419 | -73.33663 | 10738 ft | 346 kts | 338° |
| 2026-04-27 01:18 | 7.51699 | -73.34577 | 11210 ft | 358 kts | 338° |
| 2026-04-27 01:18 | 7.54030 | -73.35512 | 11909 ft | 362 kts | 338° |
| 2026-04-27 01:18 | 7.56381 | -73.36457 | 12658 ft | 365 kts | 339° |
| 2026-04-27 01:18 | 7.58721 | -73.37397 | 13363 ft | 369 kts | 339° |
| 2026-04-27 01:19 | 7.61124 | -73.38362 | 14016 ft | 373 kts | 338° |
| 2026-04-27 01:19 | 7.63555 | -73.39339 | 14634 ft | 377 kts | 338° |
| 2026-04-27 01:19 | 7.66006 | -73.40324 | 15257 ft | 381 kts | 338° |
| 2026-04-27 01:19 | 7.68475 | -73.41317 | 15860 ft | 384 kts | 338° |
| 2026-04-27 01:20 | 7.70976 | -73.42322 | 16459 ft | 388 kts | 338° |
| 2026-04-27 01:20 | 7.73496 | -73.43336 | 17042 ft | 392 kts | 338° |
| 2026-04-27 01:20 | 7.76045 | -73.44361 | 17633 ft | 395 kts | 338° |
| 2026-04-27 01:20 | 7.78581 | -73.45381 | 18187 ft | 399 kts | 338° |
| 2026-04-27 01:21 | 7.81181 | -73.46427 | 18657 ft | 403 kts | 338° |
| 2026-04-27 01:21 | 7.83800 | -73.47480 | 19147 ft | 406 kts | 338° |
| 2026-04-27 01:21 | 7.86439 | -73.48542 | 19638 ft | 409 kts | 338° |
| 2026-04-27 01:21 | 7.89099 | -73.49613 | 20121 ft | 412 kts | 338° |
| 2026-04-27 01:22 | 7.91772 | -73.50688 | 20599 ft | 415 kts | 338° |
| 2026-04-27 01:22 | 7.94462 | -73.51771 | 21069 ft | 418 kts | 338° |
| 2026-04-27 01:22 | 7.97172 | -73.52862 | 21539 ft | 420 kts | 338° |
| 2026-04-27 01:22 | 7.99897 | -73.53960 | 21987 ft | 423 kts | 338° |
| 2026-04-27 01:23 | 8.02617 | -73.55055 | 22431 ft | 426 kts | 338° |
| 2026-04-27 01:23 | 8.05384 | -73.56170 | 22868 ft | 429 kts | 338° |
| 2026-04-27 01:23 | 8.08146 | -73.57283 | 23552 ft | 422 kts | 338° |
| 2026-04-27 01:23 | 8.10865 | -73.58379 | 23827 ft | 418 kts | 338° |
| 2026-04-27 01:24 | 8.13552 | -73.59461 | 23924 ft | 425 kts | 338° |
| 2026-04-27 01:24 | 8.16333 | -73.60589 | 23930 ft | 434 kts | 336° |
| 2026-04-27 01:24 | 8.19009 | -73.62033 | 23929 ft | 439 kts | 327° |
| 2026-04-27 01:24 | 8.21435 | -73.63896 | 23920 ft | 437 kts | 317° |
| 2026-04-27 01:25 | 8.23537 | -73.66102 | 23925 ft | 435 kts | 312° |
| 2026-04-27 01:25 | 8.25557 | -73.68386 | 23917 ft | 435 kts | 311° |
| 2026-04-27 01:25 | 8.27553 | -73.70677 | 23913 ft | 435 kts | 311° |
| 2026-04-27 01:25 | 8.29553 | -73.72971 | 23914 ft | 435 kts | 311° |
| 2026-04-27 01:26 | 8.31560 | -73.75261 | 23916 ft | 435 kts | 311° |
| 2026-04-27 01:26 | 8.33547 | -73.77513 | 23915 ft | 436 kts | 311° |
| 2026-04-27 01:26 | 8.35571 | -73.79795 | 23914 ft | 436 kts | 311° |
| 2026-04-27 01:26 | 8.37601 | -73.82078 | 23915 ft | 437 kts | 311° |
| 2026-04-27 01:27 | 8.39636 | -73.84362 | 23911 ft | 437 kts | 311° |
| 2026-04-27 01:27 | 8.41675 | -73.86651 | 23914 ft | 438 kts | 311° |
| 2026-04-27 01:27 | 8.43718 | -73.88943 | 23910 ft | 438 kts | 311° |
| 2026-04-27 01:27 | 8.45756 | -73.91230 | 23911 ft | 439 kts | 311° |
| 2026-04-27 01:28 | 8.47798 | -73.93522 | 23909 ft | 439 kts | 311° |
| 2026-04-27 01:28 | 8.49838 | -73.95813 | 23908 ft | 439 kts | 311° |
| 2026-04-27 01:28 | 8.51879 | -73.98104 | 23909 ft | 438 kts | 311° |
| 2026-04-27 01:28 | 8.53917 | -74.00394 | 23909 ft | 438 kts | 311° |
| 2026-04-27 01:29 | 8.55942 | -74.02669 | 23910 ft | 438 kts | 311° |
| 2026-04-27 01:29 | 8.57984 | -74.04965 | 23911 ft | 437 kts | 311° |
| 2026-04-27 01:29 | 8.60018 | -74.07251 | 23912 ft | 437 kts | 311° |
| 2026-04-27 01:29 | 8.62048 | -74.09533 | 23907 ft | 437 kts | 311° |
| 2026-04-27 01:30 | 8.64085 | -74.11823 | 23907 ft | 437 kts | 311° |
| 2026-04-27 01:30 | 8.66086 | -74.14074 | 23905 ft | 436 kts | 311° |
| 2026-04-27 01:30 | 8.68114 | -74.16355 | 23908 ft | 436 kts | 311° |
| 2026-04-27 01:30 | 8.70145 | -74.18641 | 23908 ft | 436 kts | 311° |
| 2026-04-27 01:31 | 8.72173 | -74.20922 | 23907 ft | 436 kts | 311° |
| 2026-04-27 01:31 | 8.74203 | -74.23207 | 23901 ft | 436 kts | 311° |
| 2026-04-27 01:31 | 8.76226 | -74.25485 | 23905 ft | 436 kts | 311° |
| 2026-04-27 01:31 | 8.78258 | -74.27772 | 23906 ft | 436 kts | 311° |
| 2026-04-27 01:32 | 8.80284 | -74.30053 | 23901 ft | 436 kts | 311° |
| 2026-04-27 01:32 | 8.82317 | -74.32343 | 23904 ft | 436 kts | 311° |
| 2026-04-27 01:32 | 8.84321 | -74.34601 | 23905 ft | 437 kts | 311° |
| 2026-04-27 01:32 | 8.86352 | -74.36889 | 23907 ft | 437 kts | 311° |
| 2026-04-27 01:33 | 8.88383 | -74.39177 | 23906 ft | 437 kts | 311° |
| 2026-04-27 01:33 | 8.90424 | -74.41477 | 23906 ft | 437 kts | 311° |
| 2026-04-27 01:33 | 8.92454 | -74.43765 | 23908 ft | 437 kts | 311° |
| 2026-04-27 01:33 | 8.94486 | -74.46056 | 23907 ft | 437 kts | 311° |
| 2026-04-27 01:34 | 8.96494 | -74.48321 | 23905 ft | 437 kts | 311° |
| 2026-04-27 01:34 | 8.98535 | -74.50623 | 23905 ft | 437 kts | 311° |
| 2026-04-27 01:34 | 9.00564 | -74.52912 | 23906 ft | 437 kts | 311° |
| 2026-04-27 01:34 | 9.02596 | -74.55204 | 23910 ft | 437 kts | 311° |
| 2026-04-27 01:35 | 9.04628 | -74.57497 | 23909 ft | 437 kts | 311° |
| 2026-04-27 01:35 | 9.06656 | -74.59786 | 23910 ft | 437 kts | 311° |
| 2026-04-27 01:35 | 9.08689 | -74.62081 | 23912 ft | 437 kts | 311° |
| 2026-04-27 01:35 | 9.10722 | -74.64377 | 23906 ft | 433 kts | 311° |
| 2026-04-27 01:36 | 9.12683 | -74.66591 | 23902 ft | 422 kts | 311° |
| 2026-04-27 01:36 | 9.14628 | -74.68788 | 23904 ft | 417 kts | 311° |
| 2026-04-27 01:36 | 9.16567 | -74.70979 | 23911 ft | 417 kts | 311° |
| 2026-04-27 01:36 | 9.18511 | -74.73176 | 23821 ft | 420 kts | 311° |
| 2026-04-27 01:37 | 9.20463 | -74.75384 | 23426 ft | 419 kts | 311° |
| 2026-04-27 01:37 | 9.22372 | -74.77541 | 22899 ft | 415 kts | 311° |
| 2026-04-27 01:37 | 9.24286 | -74.79705 | 22391 ft | 411 kts | 311° |
| 2026-04-27 01:37 | 9.26182 | -74.81850 | 21888 ft | 407 kts | 311° |
| 2026-04-27 01:38 | 9.28071 | -74.83965 | 21401 ft | 403 kts | 313° |
| 2026-04-27 01:38 | 9.30162 | -74.85847 | 20864 ft | 401 kts | 323° |
| 2026-04-27 01:38 | 9.32429 | -74.87469 | 20453 ft | 391 kts | 325° |
| 2026-04-27 01:38 | 9.34608 | -74.88975 | 19899 ft | 371 kts | 325° |
| 2026-04-27 01:39 | 9.36689 | -74.90412 | 19422 ft | 355 kts | 325° |
| 2026-04-27 01:39 | 9.38690 | -74.91807 | 18934 ft | 343 kts | 324° |
| 2026-04-27 01:39 | 9.40599 | -74.93151 | 18513 ft | 336 kts | 324° |
| 2026-04-27 01:39 | 9.42534 | -74.94521 | 18084 ft | 347 kts | 324° |
| 2026-04-27 01:40 | 9.44568 | -74.95966 | 17602 ft | 363 kts | 324° |
| 2026-04-27 01:40 | 9.46671 | -74.97461 | 17204 ft | 373 kts | 324° |
| 2026-04-27 01:40 | 9.48780 | -74.98960 | 16723 ft | 362 kts | 324° |
| 2026-04-27 01:40 | 9.50787 | -75.00386 | 16269 ft | 341 kts | 324° |
| 2026-04-27 01:41 | 9.52680 | -75.01736 | 15890 ft | 325 kts | 324° |
| 2026-04-27 01:41 | 9.54475 | -75.03019 | 15495 ft | 314 kts | 324° |
| 2026-04-27 01:41 | 9.56261 | -75.04296 | 15120 ft | 316 kts | 324° |
| 2026-04-27 01:41 | 9.58109 | -75.05618 | 14741 ft | 335 kts | 324° |
| 2026-04-27 01:42 | 9.60074 | -75.07023 | 14284 ft | 354 kts | 324° |
| 2026-04-27 01:42 | 9.62082 | -75.08460 | 13816 ft | 345 kts | 324° |
| 2026-04-27 01:42 | 9.63995 | -75.09827 | 13330 ft | 327 kts | 324° |
| 2026-04-27 01:42 | 9.65793 | -75.11113 | 12915 ft | 313 kts | 324° |
| 2026-04-27 01:43 | 9.67546 | -75.12367 | 12512 ft | 305 kts | 324° |
| 2026-04-27 01:43 | 9.69300 | -75.13621 | 12139 ft | 316 kts | 324° |
| 2026-04-27 01:43 | 9.71158 | -75.14951 | 11740 ft | 337 kts | 324° |
| 2026-04-27 01:43 | 9.73091 | -75.16333 | 11280 ft | 335 kts | 324° |
| 2026-04-27 01:44 | 9.74961 | -75.17642 | 10850 ft | 317 kts | 326° |
| 2026-04-27 01:44 | 9.76747 | -75.18837 | 10634 ft | 297 kts | 327° |
| 2026-04-27 01:44 | 9.78418 | -75.19943 | 10489 ft | 277 kts | 327° |
| 2026-04-27 01:44 | 9.80028 | -75.21010 | 10395 ft | 279 kts | 327° |
| 2026-04-27 01:45 | 9.81687 | -75.22114 | 10306 ft | 298 kts | 327° |
| 2026-04-27 01:45 | 9.83404 | -75.23259 | 10163 ft | 288 kts | 327° |
| 2026-04-27 01:45 | 9.85020 | -75.24339 | 10005 ft | 268 kts | 327° |
| 2026-04-27 01:45 | 9.86549 | -75.25362 | 9726 ft | 259 kts | 327° |
| 2026-04-27 01:46 | 9.88039 | -75.26359 | 9449 ft | 254 kts | 327° |
| 2026-04-27 01:46 | 9.89528 | -75.27356 | 9161 ft | 263 kts | 327° |
| 2026-04-27 01:46 | 9.91108 | -75.28412 | 8809 ft | 276 kts | 327° |
| 2026-04-27 01:46 | 9.92689 | -75.29468 | 8494 ft | 272 kts | 327° |
| 2026-04-27 01:47 | 9.94234 | -75.30501 | 8186 ft | 259 kts | 327° |
| 2026-04-27 01:47 | 9.95709 | -75.31487 | 7903 ft | 250 kts | 327° |
| 2026-04-27 01:47 | 9.97150 | -75.32452 | 7651 ft | 246 kts | 327° |
| 2026-04-27 01:47 | 9.98596 | -75.33419 | 7411 ft | 255 kts | 327° |
| 2026-04-27 01:48 | 10.00130 | -75.34445 | 7153 ft | 269 kts | 327° |
| 2026-04-27 01:48 | 10.01653 | -75.35464 | 6843 ft | 260 kts | 327° |
| 2026-04-27 01:48 | 10.03131 | -75.36454 | 6558 ft | 248 kts | 327° |
| 2026-04-27 01:48 | 10.04554 | -75.37407 | 6273 ft | 242 kts | 327° |
| 2026-04-27 01:49 | 10.05957 | -75.38347 | 6021 ft | 242 kts | 327° |
| 2026-04-27 01:49 | 10.07401 | -75.39313 | 5769 ft | 257 kts | 327° |
| 2026-04-27 01:49 | 10.08897 | -75.40315 | 5488 ft | 260 kts | 327° |
| 2026-04-27 01:49 | 10.10369 | -75.41302 | 5198 ft | 247 kts | 327° |
| 2026-04-27 01:50 | 10.11778 | -75.42247 | 4923 ft | 238 kts | 327° |
| 2026-04-27 01:50 | 10.13154 | -75.43168 | 4681 ft | 236 kts | 328° |
| 2026-04-27 01:50 | 10.14542 | -75.44098 | 4434 ft | 246 kts | 327° |
| 2026-04-27 01:50 | 10.16012 | -75.45082 | 4164 ft | 256 kts | 328° |
| 2026-04-27 01:51 | 10.17483 | -75.46069 | 3855 ft | 247 kts | 327° |
| 2026-04-27 01:51 | 10.18856 | -75.46991 | 3700 ft | 232 kts | 328° |
| 2026-04-27 01:51 | 10.20174 | -75.47875 | 3590 ft | 222 kts | 328° |
| 2026-04-27 01:51 | 10.21462 | -75.48738 | 3498 ft | 222 kts | 328° |
| 2026-04-27 01:52 | 10.22780 | -75.49621 | 3428 ft | 229 kts | 328° |
| 2026-04-27 01:52 | 10.24072 | -75.50488 | 3302 ft | 216 kts | 328° |
| 2026-04-27 01:52 | 10.25292 | -75.51306 | 3199 ft | 205 kts | 328° |
| 2026-04-27 01:52 | 10.26569 | -75.51937 | 2996 ft | 205 kts | 353° |
| 2026-04-27 01:53 | 10.27940 | -75.51930 | 2839 ft | 191 kts | 3° |
| 2026-04-27 01:53 | 10.29229 | -75.51881 | 2611 ft | 185 kts | 3° |
| 2026-04-27 01:53 | 10.30513 | -75.51837 | 2398 ft | 185 kts | 2° |
| 2026-04-27 01:53 | 10.31816 | -75.51795 | 2147 ft | 187 kts | 3° |
| 2026-04-27 01:54 | 10.33079 | -75.51746 | 1910 ft | 174 kts | 3° |
| 2026-04-27 01:54 | 10.34250 | -75.51698 | 1672 ft | 162 kts | 3° |
| 2026-04-27 01:54 | 10.35338 | -75.51653 | 1473 ft | 153 kts | 3° |
| 2026-04-27 01:54 | 10.36369 | -75.51611 | 1281 ft | 146 kts | 4° |
| 2026-04-27 01:55 | 10.37349 | -75.51571 | 1088 ft | 138 kts | 4° |
| 2026-04-27 01:55 | 10.38315 | -75.51531 | 920 ft | 140 kts | 4° |
| 2026-04-27 01:55 | 10.39308 | -75.51490 | 793 ft | 146 kts | 4° |
| 2026-04-27 01:55 | 10.40284 | -75.51451 | 620 ft | 132 kts | 2° |
| 2026-04-27 01:56 | 10.42138 | -75.51383 | 206 ft | 127 kts | 2° |
| 2026-04-27 01:56 | 10.43001 | -75.51348 | 61 ft | 124 kts | 3° |
| 2026-04-27 01:56 | 10.43824 | -75.51312 | 15 ft | 108 kts | 3° |
| 2026-04-27 01:57 | 10.44413 | -75.51288 | 15 ft | 44 kts | 2° |
| 2026-04-27 01:57 | 10.44522 | -75.51298 | 15 ft | 14 kts | 327° |
| 2026-04-27 01:57 | 10.44556 | -75.51386 | 15 ft | 13 kts | 283° |
| 2026-04-27 01:57 | 10.44576 | -75.51477 | 17 ft | 13 kts | 292° |
| 2026-04-27 01:58 | 10.44624 | -75.51542 | 15 ft | 0 kts | 283° |